Time;durP1;ratioP1;P1;durP2;ratioP2;P2;SDS_P1;SDS_P2;PMS_P1;PMS_P2;Temp;Humidity;BMP_temperature;BMP_pressure;BME280_temperature;BME280_humidity;BME280_pressure;Samples;Min_cycle;Max_cycle;Signal;HPM_P1;HPM_P2
2023/08/17 00:01:14;;;;;;;5.85;3.60;;;;;;;;;;5031488;28;20549;-67
2023/08/17 00:03:59;;;;;;;10.60;3.95;;;;;;;;;;5027056;28;20533;-65
2023/08/17 00:06:46;;;;;;;6.03;3.45;;;;;;;;;;5033281;28;20029;-68
2023/08/17 00:09:32;;;;;;;8.00;4.00;;;;;;;;;;5034067;28;20627;-67
2023/08/17 00:12:17;;;;;;;8.27;4.40;;;;;;;;;;5012361;28;20024;-70
2023/08/17 00:15:02;;;;;;;7.90;3.63;;;;;;;;;;5040882;28;20483;-70
2023/08/17 00:17:48;;;;;;;7.20;4.45;;;;;;;;;;5040315;28;20202;-70
2023/08/17 00:20:33;;;;;;;7.15;4.55;;;;;;;;;;5021834;28;20720;-70
2023/08/17 00:23:20;;;;;;;6.53;4.32;;;;;;;;;;5014119;28;20033;-71
2023/08/17 00:26:06;;;;;;;5.35;4.20;;;;;;;;;;5013397;28;20041;-71
2023/08/17 00:28:51;;;;;;;8.13;4.28;;;;;;;;;;5023254;28;20124;-69
2023/08/17 00:31:36;;;;;;;9.63;4.22;;;;;;;;;;5028529;28;20035;-64
2023/08/17 00:34:21;;;;;;;9.63;3.63;;;;;;;;;;5021321;28;20032;-64
2023/08/17 00:37:07;;;;;;;8.90;4.78;;;;;;;;;;5044559;28;20205;-64
2023/08/17 00:39:52;;;;;;;7.40;4.13;;;;;;;;;;5043560;28;20053;-65
2023/08/17 00:42:37;;;;;;;9.18;4.85;;;;;;;;;;5029599;28;20102;-66
2023/08/17 00:45:23;;;;;;;8.38;4.60;;;;;;;;;;5030314;28;20087;-65
2023/08/17 00:48:08;;;;;;;9.95;4.70;;;;;;;;;;5017076;28;20033;-67
2023/08/17 00:50:55;;;;;;;7.45;4.28;;;;;;;;;;5021622;28;20115;-69
2023/08/17 00:53:40;;;;;;;16.00;4.88;;;;;;;;;;5027701;28;20041;-67
2023/08/17 00:56:26;;;;;;;6.07;3.92;;;;;;;;;;5044791;28;20037;-68
2023/08/17 00:59:11;;;;;;;8.13;4.53;;;;;;;;;;5014880;28;20468;-67
2023/08/17 01:01:56;;;;;;;7.28;4.50;;;;;;;;;;5007194;28;20024;-66
2023/08/17 01:04:42;;;;;;;12.40;5.20;;;;;;;;;;5043533;28;20458;-71
2023/08/17 01:07:27;;;;;;;15.45;5.20;;;;;;;;;;5022984;28;20048;-68
2023/08/17 01:10:12;;;;;;;7.28;4.80;;;;;;;;;;5021058;28;20041;-68
2023/08/17 01:13:05;;;;;;;8.23;4.50;;;;;;;;;;5012155;28;20073;-68
2023/08/17 01:15:52;;;;;;;9.35;4.47;;;;;;;;;;5037837;28;20040;-67
2023/08/17 01:18:38;;;;;;;11.27;5.15;;;;;;;;;;5020650;28;20366;-67
2023/08/17 01:21:24;;;;;;;10.23;5.50;;;;;;;;;;5022152;28;20056;-67
2023/08/17 01:24:10;;;;;;;8.10;4.38;;;;;;;;;;5024004;28;20037;-68
2023/08/17 01:26:56;;;;;;;7.55;4.75;;;;;;;;;;5037975;28;20563;-66
2023/08/17 01:29:41;;;;;;;6.85;4.15;;;;;;;;;;5031493;28;20488;-66
2023/08/17 01:33:05;;;;;;;6.30;4.63;;;;;;;;;;5029941;28;20041;-66
2023/08/17 01:35:56;;;;;;;8.45;5.10;;;;;;;;;;4954301;28;20061;-66
2023/08/17 01:38:42;;;;;;;8.27;4.22;;;;;;;;;;4974501;28;20042;-68
2023/08/17 01:41:28;;;;;;;5.55;3.58;;;;;;;;;;5020313;28;20040;-76
2023/08/17 01:44:13;;;;;;;7.15;5.10;;;;;;;;;;5026986;28;20021;-66
2023/08/17 01:46:58;;;;;;;12.07;5.18;;;;;;;;;;5029941;28;20065;-64
2023/08/17 01:49:44;;;;;;;7.80;4.65;;;;;;;;;;5027072;28;20353;-65
2023/08/17 01:52:29;;;;;;;7.18;4.75;;;;;;;;;;5022843;28;20045;-64
2023/08/17 01:55:14;;;;;;;5.20;3.90;;;;;;;;;;5033853;28;20103;-66
2023/08/17 01:57:59;;;;;;;11.52;4.75;;;;;;;;;;5044435;28;20036;-67
2023/08/17 02:00:45;;;;;;;7.40;5.03;;;;;;;;;;5049487;28;20061;-67
2023/08/17 02:03:30;;;;;;;11.75;5.45;;;;;;;;;;5032550;28;20047;-71
2023/08/17 02:06:15;;;;;;;9.82;5.72;;;;;;;;;;5021162;28;20394;-72
2023/08/17 02:09:00;;;;;;;12.68;5.18;;;;;;;;;;5032903;28;20463;-71
2023/08/17 02:11:46;;;;;;;8.70;4.72;;;;;;;;;;5016233;28;20064;-71
2023/08/17 02:14:31;;;;;;;8.02;4.93;;;;;;;;;;5013025;28;20045;-70
2023/08/17 02:17:16;;;;;;;6.40;4.25;;;;;;;;;;5017353;28;20059;-72
2023/08/17 02:20:03;;;;;;;8.38;4.93;;;;;;;;;;5047178;28;20052;-75
2023/08/17 02:22:48;;;;;;;7.88;5.30;;;;;;;;;;5031552;28;20064;-70
2023/08/17 02:25:37;;;;;;;8.13;5.32;;;;;;;;;;5038248;28;20025;-71
2023/08/17 02:28:22;;;;;;;10.35;5.10;;;;;;;;;;5047577;28;20049;-72
2023/08/17 02:31:07;;;;;;;7.43;5.18;;;;;;;;;;5040721;28;20030;-70
2023/08/17 02:33:53;;;;;;;8.43;4.90;;;;;;;;;;5036288;28;20364;-71
2023/08/17 02:36:38;;;;;;;9.40;5.13;;;;;;;;;;5043027;28;20108;-68
2023/08/17 02:39:23;;;;;;;10.07;4.82;;;;;;;;;;5058331;28;20461;-68
2023/08/17 02:42:08;;;;;;;9.88;6.07;;;;;;;;;;5036235;28;20121;-69
2023/08/17 02:44:53;;;;;;;9.05;5.63;;;;;;;;;;5045897;28;20071;-68
2023/08/17 02:47:39;;;;;;;8.02;5.40;;;;;;;;;;5035574;28;20050;-68
2023/08/17 02:50:24;;;;;;;10.02;4.72;;;;;;;;;;5040556;28;20111;-69
2023/08/17 02:53:09;;;;;;;8.40;4.20;;;;;;;;;;5042806;28;20143;-66
2023/08/17 02:55:54;;;;;;;9.57;5.28;;;;;;;;;;5039169;28;20024;-66
2023/08/17 02:58:42;;;;;;;10.00;5.07;;;;;;;;;;5044192;28;20041;-70
2023/08/17 03:01:29;;;;;;;8.45;5.03;;;;;;;;;;5047189;28;20047;-69
2023/08/17 03:04:14;;;;;;;12.05;5.22;;;;;;;;;;5040285;28;20086;-69
2023/08/17 03:06:59;;;;;;;6.25;4.43;;;;;;;;;;5040548;28;20075;-67
2023/08/17 03:09:44;;;;;;;6.60;4.75;;;;;;;;;;5045929;28;20477;-69
2023/08/17 03:12:29;;;;;;;7.38;5.47;;;;;;;;;;5048914;28;20098;-67
2023/08/17 03:15:15;;;;;;;8.52;6.15;;;;;;;;;;5032092;28;20175;-71
2023/08/17 03:18:00;;;;;;;8.57;5.70;;;;;;;;;;5040059;28;20411;-65
2023/08/17 03:20:46;;;;;;;9.70;5.55;;;;;;;;;;5044775;28;20471;-64
2023/08/17 03:23:32;;;;;;;8.35;5.43;;;;;;;;;;5043430;28;20056;-66
2023/08/17 03:26:18;;;;;;;11.82;5.60;;;;;;;;;;5044239;28;20077;-66
2023/08/17 03:29:03;;;;;;;8.75;5.75;;;;;;;;;;5062541;28;20547;-65
2023/08/17 03:31:49;;;;;;;9.65;6.13;;;;;;;;;;5029518;28;20045;-69
2023/08/17 03:34:34;;;;;;;9.60;6.35;;;;;;;;;;5029087;28;20414;-69
2023/08/17 03:37:20;;;;;;;10.68;5.63;;;;;;;;;;5050147;28;20033;-67
2023/08/17 03:40:07;;;;;;;11.60;6.05;;;;;;;;;;5043632;28;20039;-67
2023/08/17 03:42:52;;;;;;;11.32;6.75;;;;;;;;;;5049971;28;20045;-71
2023/08/17 03:45:38;;;;;;;10.25;6.82;;;;;;;;;;5049831;28;20077;-70
2023/08/17 03:48:23;;;;;;;10.30;6.28;;;;;;;;;;5044643;28;20039;-71
2023/08/17 03:51:08;;;;;;;13.55;8.85;;;;;;;;;;5047749;28;20029;-71
2023/08/17 03:53:53;;;;;;;14.00;8.32;;;;;;;;;;5048359;28;20048;-69
2023/08/17 03:56:38;;;;;;;17.73;8.95;;;;;;;;;;5048773;28;20036;-68
2023/08/17 03:59:24;;;;;;;11.73;6.90;;;;;;;;;;5055772;28;20497;-69
2023/08/17 04:02:10;;;;;;;11.60;7.82;;;;;;;;;;5048799;28;20033;-67
2023/08/17 04:04:55;;;;;;;14.73;8.00;;;;;;;;;;5047468;28;20043;-68
2023/08/17 04:07:41;;;;;;;11.20;7.60;;;;;;;;;;5032446;28;20039;-67
2023/08/17 04:10:26;;;;;;;14.65;9.02;;;;;;;;;;5027379;28;20112;-71
2023/08/17 04:13:11;;;;;;;16.23;8.95;;;;;;;;;;5036452;28;20044;-66
2023/08/17 04:15:56;;;;;;;13.05;7.85;;;;;;;;;;5051212;28;20467;-65
2023/08/17 04:18:41;;;;;;;13.20;7.60;;;;;;;;;;5028617;28;20412;-69
2023/08/17 04:21:27;;;;;;;14.38;9.15;;;;;;;;;;5019488;28;20107;-65
2023/08/17 04:24:12;;;;;;;11.15;8.38;;;;;;;;;;4999275;28;20045;-67
2023/08/17 04:26:57;;;;;;;12.25;8.70;;;;;;;;;;5033464;28;20478;-70
2023/08/17 04:29:42;;;;;;;12.75;9.40;;;;;;;;;;5046021;28;20040;-76
2023/08/17 04:32:27;;;;;;;13.43;8.52;;;;;;;;;;5033638;28;20033;-76
2023/08/17 04:35:13;;;;;;;15.00;9.30;;;;;;;;;;5037362;28;20041;-75
2023/08/17 04:37:58;;;;;;;10.15;7.38;;;;;;;;;;5030938;28;20025;-75
2023/08/17 04:40:43;;;;;;;14.52;8.95;;;;;;;;;;5026015;28;20067;-75
2023/08/17 04:43:28;;;;;;;12.60;7.80;;;;;;;;;;5038307;28;20497;-75
2023/08/17 04:46:14;;;;;;;17.02;9.10;;;;;;;;;;5032445;28;20029;-71
2023/08/17 04:48:59;;;;;;;14.85;9.50;;;;;;;;;;5024194;28;20119;-69
2023/08/17 04:51:44;;;;;;;12.05;8.82;;;;;;;;;;5016338;28;20040;-69
2023/08/17 04:54:30;;;;;;;11.38;7.72;;;;;;;;;;5040990;28;20048;-68
2023/08/17 04:57:16;;;;;;;13.82;9.27;;;;;;;;;;5039544;28;20078;-68
2023/08/17 05:00:01;;;;;;;14.02;8.95;;;;;;;;;;5031607;28;20668;-68
2023/08/17 05:02:46;;;;;;;14.93;9.82;;;;;;;;;;5027108;28;20041;-69
2023/08/17 05:05:31;;;;;;;16.02;10.80;;;;;;;;;;5016633;28;20140;-71
2023/08/17 05:08:17;;;;;;;18.05;12.30;;;;;;;;;;5013590;28;20542;-71
2023/08/17 05:11:02;;;;;;;15.55;10.38;;;;;;;;;;5044923;28;20041;-72
2023/08/17 05:13:47;;;;;;;13.40;10.38;;;;;;;;;;5032730;28;20028;-71
2023/08/17 05:16:32;;;;;;;13.68;9.98;;;;;;;;;;5044968;28;20041;-70
2023/08/17 05:19:17;;;;;;;21.80;10.90;;;;;;;;;;5031876;28;20064;-70
2023/08/17 05:22:03;;;;;;;16.42;12.35;;;;;;;;;;5028365;28;20136;-70
2023/08/17 05:24:48;;;;;;;17.23;13.18;;;;;;;;;;5024918;28;20037;-70
2023/08/17 05:27:33;;;;;;;17.75;13.48;;;;;;;;;;5037417;28;20098;-69
2023/08/17 05:30:18;;;;;;;17.92;13.45;;;;;;;;;;5034994;28;20063;-69
2023/08/17 05:33:04;;;;;;;14.50;11.23;;;;;;;;;;5046516;28;20025;-69
2023/08/17 05:35:55;;;;;;;16.05;12.88;;;;;;;;;;5037633;28;20036;-69
2023/08/17 05:38:40;;;;;;;15.45;11.43;;;;;;;;;;5024844;28;20576;-68
2023/08/17 05:41:26;;;;;;;14.13;10.30;;;;;;;;;;5062951;28;20038;-67
2023/08/17 05:44:11;;;;;;;16.70;12.13;;;;;;;;;;5036830;28;20040;-75
2023/08/17 05:46:56;;;;;;;18.98;12.27;;;;;;;;;;5032272;28;20112;-76
2023/08/17 05:49:41;;;;;;;22.85;12.95;;;;;;;;;;5023250;28;20033;-73
2023/08/17 05:52:27;;;;;;;15.25;11.13;;;;;;;;;;5035915;28;20068;-79
2023/08/17 05:55:12;;;;;;;14.27;10.77;;;;;;;;;;5026861;28;20471;-78
2023/08/17 05:57:57;;;;;;;14.00;10.05;;;;;;;;;;5029046;28;20067;-82
2023/08/17 06:00:42;;;;;;;13.45;10.43;;;;;;;;;;5003678;28;20034;-70
2023/08/17 06:03:28;;;;;;;16.95;11.18;;;;;;;;;;5026796;28;20035;-65
2023/08/17 06:06:13;;;;;;;18.50;11.82;;;;;;;;;;5022292;28;20037;-64
2023/08/17 06:08:58;;;;;;;16.35;11.57;;;;;;;;;;5000635;28;20104;-65
2023/08/17 06:11:43;;;;;;;14.90;11.73;;;;;;;;;;5031724;28;20115;-65
2023/08/17 06:14:28;;;;;;;12.90;10.00;;;;;;;;;;5015603;28;20221;-66
2023/08/17 06:17:14;;;;;;;13.60;9.40;;;;;;;;;;5010689;28;20029;-68
2023/08/17 06:19:59;;;;;;;14.43;10.70;;;;;;;;;;5019367;28;20034;-70
2023/08/17 06:22:45;;;;;;;14.45;11.32;;;;;;;;;;5001861;28;20481;-70
2023/08/17 06:25:30;;;;;;;13.38;10.30;;;;;;;;;;5042329;28;20786;-69
2023/08/17 06:28:15;;;;;;;14.95;10.77;;;;;;;;;;5030830;28;20021;-71
2023/08/17 06:31:01;;;;;;;17.73;12.00;;;;;;;;;;5028682;28;20480;-71
2023/08/17 06:33:46;;;;;;;15.45;11.48;;;;;;;;;;5034377;28;20051;-70
2023/08/17 06:36:32;;;;;;;15.85;10.63;;;;;;;;;;5030836;28;20033;-68
2023/08/17 06:39:17;;;;;;;18.10;12.70;;;;;;;;;;5028809;28;20029;-71
2023/08/17 06:42:02;;;;;;;16.50;10.55;;;;;;;;;;5028045;28;20040;-73
2023/08/17 06:44:48;;;;;;;15.90;11.38;;;;;;;;;;5029979;28;20045;-71
2023/08/17 06:47:33;;;;;;;14.63;10.23;;;;;;;;;;5031875;28;20045;-71
2023/08/17 06:50:18;;;;;;;14.52;11.23;;;;;;;;;;5047298;28;20211;-71
2023/08/17 06:53:04;;;;;;;13.32;10.20;;;;;;;;;;5040327;28;20029;-70
2023/08/17 06:55:49;;;;;;;13.27;10.07;;;;;;;;;;5038521;28;20037;-66
2023/08/17 06:58:35;;;;;;;14.07;9.23;;;;;;;;;;5061977;28;20056;-66
2023/08/17 07:01:20;;;;;;;12.30;8.68;;;;;;;;;;5048220;28;20032;-68
2023/08/17 07:04:05;;;;;;;13.07;9.57;;;;;;;;;;5046896;28;20052;-68
2023/08/17 07:06:50;;;;;;;12.95;9.85;;;;;;;;;;5031507;28;20044;-69
2023/08/17 07:09:35;;;;;;;13.20;9.15;;;;;;;;;;5043643;28;20048;-68
2023/08/17 07:12:21;;;;;;;13.63;9.95;;;;;;;;;;5026415;28;20040;-70
2023/08/17 07:15:06;;;;;;;13.38;8.85;;;;;;;;;;5034475;28;20037;-78
2023/08/17 07:17:51;;;;;;;11.10;7.93;;;;;;;;;;5028895;28;20029;-75
2023/08/17 07:20:37;;;;;;;10.45;7.47;;;;;;;;;;5041701;28;20059;-76
2023/08/17 07:23:22;;;;;;;13.63;9.02;;;;;;;;;;5032088;28;20038;-77
2023/08/17 07:26:07;;;;;;;13.05;8.50;;;;;;;;;;5009341;28;20052;-76
2023/08/17 07:28:52;;;;;;;11.93;8.65;;;;;;;;;;5029568;28;20190;-78
2023/08/17 07:31:38;;;;;;;13.18;9.43;;;;;;;;;;5041407;28;20215;-70
2023/08/17 07:34:23;;;;;;;10.70;8.57;;;;;;;;;;5030468;28;20084;-70
2023/08/17 07:37:09;;;;;;;13.23;8.48;;;;;;;;;;5027664;28;20025;-71
2023/08/17 07:39:55;;;;;;;12.00;8.52;;;;;;;;;;5009607;28;20451;-74
2023/08/17 07:42:40;;;;;;;11.82;8.07;;;;;;;;;;5012374;28;20049;-72
2023/08/17 07:45:25;;;;;;;12.55;8.65;;;;;;;;;;5031079;28;20380;-71
2023/08/17 07:48:10;;;;;;;10.23;7.05;;;;;;;;;;5025126;28;20036;-71
2023/08/17 07:50:55;;;;;;;10.50;7.22;;;;;;;;;;5017961;28;20029;-73
2023/08/17 07:53:41;;;;;;;11.13;7.05;;;;;;;;;;5016276;28;20033;-73
2023/08/17 07:56:26;;;;;;;12.90;7.15;;;;;;;;;;5027316;28;20041;-75
2023/08/17 07:59:11;;;;;;;8.35;5.75;;;;;;;;;;5030209;28;20387;-75
2023/08/17 08:01:56;;;;;;;7.90;5.38;;;;;;;;;;5023908;28;20066;-73
2023/08/17 08:04:41;;;;;;;8.57;6.25;;;;;;;;;;5019645;28;20033;-73
2023/08/17 08:07:27;;;;;;;10.35;6.43;;;;;;;;;;5031905;28;20079;-79
2023/08/17 08:10:12;;;;;;;7.90;6.20;;;;;;;;;;5037376;28;20041;-76
2023/08/17 08:12:57;;;;;;;9.57;5.88;;;;;;;;;;5032157;28;20087;-75
2023/08/17 08:15:42;;;;;;;7.47;5.13;;;;;;;;;;5046125;28;20537;-80
2023/08/17 08:18:28;;;;;;;7.38;5.60;;;;;;;;;;5033557;28;20101;-77
2023/08/17 08:21:13;;;;;;;8.43;5.32;;;;;;;;;;5011901;28;20060;-73
2023/08/17 08:23:58;;;;;;;8.77;5.45;;;;;;;;;;5021160;28;20041;-77
2023/08/17 08:26:43;;;;;;;7.25;4.85;;;;;;;;;;5034392;28;20052;-70
2023/08/17 08:29:28;;;;;;;9.00;6.25;;;;;;;;;;5044160;28;20067;-73
2023/08/17 08:32:14;;;;;;;7.82;5.28;;;;;;;;;;5031121;28;20499;-75
2023/08/17 08:34:59;;;;;;;10.23;6.18;;;;;;;;;;5005783;28;20320;-74
2023/08/17 08:37:44;;;;;;;7.38;5.18;;;;;;;;;;5017046;28;20033;-75
2023/08/17 08:40:30;;;;;;;10.90;5.80;;;;;;;;;;5020221;28;20577;-74
2023/08/17 08:43:15;;;;;;;10.20;6.18;;;;;;;;;;5016198;28;20059;-78
2023/08/17 08:46:01;;;;;;;6.60;4.72;;;;;;;;;;5015720;28;20073;-69
2023/08/17 08:48:48;;;;;;;8.30;5.53;;;;;;;;;;5015935;28;20057;-69
2023/08/17 08:51:37;;;;;;;9.68;5.20;;;;;;;;;;5037459;28;20052;-68
2023/08/17 08:54:23;;;;;;;;;;;;;;;;;;5006835;28;20080;-69
2023/08/17 08:57:09;;;;;;;8.23;4.95;;;;;;;;;;5014647;28;19913;-71
2023/08/17 08:59:55;;;;;;;8.95;5.25;;;;;;;;;;5001576;28;20037;-70
2023/08/17 09:02:42;;;;;;;7.30;4.28;;;;;;;;;;5008985;28;20057;-70
2023/08/17 09:05:27;;;;;;;9.60;4.72;;;;;;;;;;5014768;28;20443;-68
2023/08/17 09:08:13;;;;;;;6.63;3.88;;;;;;;;;;5022223;28;20049;-70
2023/08/17 09:10:58;;;;;;;8.75;5.05;;;;;;;;;;5032255;28;20045;-72
2023/08/17 09:13:43;;;;;;;6.95;5.10;;;;;;;;;;5027088;28;20041;-70
2023/08/17 09:16:28;;;;;;;7.07;4.43;;;;;;;;;;5032375;28;20368;-69
2023/08/17 09:19:14;;;;;;;5.30;4.18;;;;;;;;;;5023749;28;20037;-71
2023/08/17 09:22:02;;;;;;;7.18;5.22;;;;;;;;;;5024576;28;20033;-80
2023/08/17 09:24:47;;;;;;;6.28;3.95;;;;;;;;;;5011263;28;20249;-73
2023/08/17 09:27:32;;;;;;;6.80;3.83;;;;;;;;;;5045495;28;20047;-74
2023/08/17 09:30:18;;;;;;;6.30;4.25;;;;;;;;;;5039925;28;20051;-74
2023/08/17 09:33:03;;;;;;;5.47;4.47;;;;;;;;;;5010845;28;20036;-75
2023/08/17 09:35:49;;;;;;;4.97;3.42;;;;;;;;;;5015715;28;20083;-75
2023/08/17 09:38:34;;;;;;;4.65;3.97;;;;;;;;;;5021459;28;20048;-74
2023/08/17 09:41:20;;;;;;;8.65;3.70;;;;;;;;;;5006903;28;20053;-71
2023/08/17 09:44:05;;;;;;;5.45;4.03;;;;;;;;;;4999814;28;20083;-82
2023/08/17 09:46:50;;;;;;;7.60;4.70;;;;;;;;;;5001194;28;20097;-80
2023/08/17 09:49:36;;;;;;;5.78;4.30;;;;;;;;;;4999877;28;20559;-83
2023/08/17 09:52:23;;;;;;;6.35;3.95;;;;;;;;;;5009813;28;20123;-75
2023/08/17 09:55:09;;;;;;;7.20;4.10;;;;;;;;;;5019991;28;20071;-79
2023/08/17 09:57:55;;;;;;;10.80;3.80;;;;;;;;;;5004316;28;20052;-71
2023/08/17 10:00:44;;;;;;;5.03;3.72;;;;;;;;;;5005399;28;20025;-76
2023/08/17 10:03:29;;;;;;;7.72;3.47;;;;;;;;;;5029198;28;20084;-76
2023/08/17 10:06:17;;;;;;;5.80;3.75;;;;;;;;;;5025107;28;20045;-76
2023/08/17 10:09:03;;;;;;;6.30;4.72;;;;;;;;;;5026731;28;20079;-74
2023/08/17 10:11:50;;;;;;;9.45;3.75;;;;;;;;;;5033650;28;20205;-73
2023/08/17 10:14:41;;;;;;;6.90;3.90;;;;;;;;;;5009195;28;20117;-73
2023/08/17 10:17:27;;;;;;;4.65;3.70;;;;;;;;;;5035163;28;20036;-84
2023/08/17 10:20:14;;;;;;;8.73;4.30;;;;;;;;;;5022839;28;20503;-72
2023/08/17 10:23:16;;;;;;;5.97;4.10;;;;;;;;;;5009730;28;20025;-71
2023/08/17 10:26:04;;;;;;;5.95;4.47;;;;;;;;;;5041870;28;20045;-70
2023/08/17 10:28:50;;;;;;;5.53;3.90;;;;;;;;;;4999712;28;20433;-71
2023/08/17 10:31:35;;;;;;;6.38;4.30;;;;;;;;;;5020236;28;20114;-70
2023/08/17 10:34:20;;;;;;;8.40;4.05;;;;;;;;;;4976513;28;20033;-77
2023/08/17 10:37:06;;;;;;;4.68;3.50;;;;;;;;;;5032736;28;20032;-74
2023/08/17 10:39:52;;;;;;;7.25;4.43;;;;;;;;;;5034817;28;20032;-69
2023/08/17 10:42:38;;;;;;;4.28;3.40;;;;;;;;;;5027142;28;20032;-72
2023/08/17 10:45:30;;;;;;;5.75;3.70;;;;;;;;;;4983576;28;20070;-72
2023/08/17 10:48:15;;;;;;;7.93;4.45;;;;;;;;;;4991182;28;20361;-74
2023/08/17 10:51:01;;;;;;;6.32;4.60;;;;;;;;;;5015303;28;20038;-73
2023/08/17 10:53:47;;;;;;;5.93;3.55;;;;;;;;;;4997970;28;20096;-72
2023/08/17 10:56:32;;;;;;;7.07;4.90;;;;;;;;;;5002660;28;20048;-73
2023/08/17 10:59:27;;;;;;;6.97;5.28;;;;;;;;;;4989257;28;20044;-74
2023/08/17 11:02:12;;;;;;;7.65;5.20;;;;;;;;;;4998012;28;20039;-74
2023/08/17 11:04:57;;;;;;;7.90;4.45;;;;;;;;;;4997148;28;20025;-73
2023/08/17 11:07:43;;;;;;;9.15;4.20;;;;;;;;;;5045185;28;20379;-72
2023/08/17 11:10:29;;;;;;;6.28;4.78;;;;;;;;;;5040275;28;20549;-72
2023/08/17 11:13:14;;;;;;;6.25;4.22;;;;;;;;;;5034285;28;20028;-71
2023/08/17 11:16:00;;;;;;;7.75;4.55;;;;;;;;;;5028310;28;20079;-76
2023/08/17 11:18:46;;;;;;;5.10;3.50;;;;;;;;;;5043456;28;20029;-77
2023/08/17 11:21:31;;;;;;;6.80;4.20;;;;;;;;;;5030322;28;20044;-80
2023/08/17 11:24:17;;;;;;;9.05;3.70;;;;;;;;;;5036731;28;20083;-78
2023/08/17 11:27:03;;;;;;;5.97;4.57;;;;;;;;;;5017778;28;20122;-79
2023/08/17 11:29:49;;;;;;;7.18;4.95;;;;;;;;;;5044237;28;20033;-72
2023/08/17 11:32:34;;;;;;;6.35;4.38;;;;;;;;;;5033888;28;20041;-69
2023/08/17 11:35:20;;;;;;;8.68;4.70;;;;;;;;;;5033595;28;20029;-69
2023/08/17 11:38:05;;;;;;;6.18;4.93;;;;;;;;;;5047175;28;20176;-71
2023/08/17 11:40:51;;;;;;;8.93;4.93;;;;;;;;;;5018601;28;20341;-68
2023/08/17 11:43:36;;;;;;;6.97;5.25;;;;;;;;;;5047667;28;20045;-70
2023/08/17 11:46:22;;;;;;;10.00;5.90;;;;;;;;;;5034255;28;20036;-70
2023/08/17 11:49:07;;;;;;;8.25;5.55;;;;;;;;;;5033035;28;20049;-80
2023/08/17 11:51:52;;;;;;;8.15;5.28;;;;;;;;;;5041443;28;20106;-75
2023/08/17 11:54:41;;;;;;;10.32;5.65;;;;;;;;;;5034847;28;20025;-75
2023/08/17 11:57:26;;;;;;;8.32;5.60;;;;;;;;;;5032840;28;20384;-73
2023/08/17 12:00:17;;;;;;;8.60;5.50;;;;;;;;;;5019675;28;20571;-74
2023/08/17 12:03:03;;;;;;;21.38;15.27;;;;;;;;;;5012204;28;20083;-73
2023/08/17 12:05:50;;;;;;;13.57;10.15;;;;;;;;;;5025073;28;20253;-66
2023/08/17 12:08:35;;;;;;;14.15;9.32;;;;;;;;;;5042960;28;21290;-73
2023/08/17 12:11:23;;;;;;;16.35;12.35;;;;;;;;;;5032137;28;20666;-67
2023/08/17 12:14:10;;;;;;;25.10;13.25;;;;;;;;;;5044676;28;20033;-69
2023/08/17 12:16:56;;;;;;;14.48;10.57;;;;;;;;;;5030981;28;20025;-65
2023/08/17 12:19:41;;;;;;;15.35;10.45;;;;;;;;;;5034673;28;20033;-64
2023/08/17 12:22:26;;;;;;;13.43;8.68;;;;;;;;;;5034076;28;20467;-66
2023/08/17 12:25:12;;;;;;;11.90;9.25;;;;;;;;;;5033476;28;20025;-65
2023/08/17 12:27:58;;;;;;;12.27;8.18;;;;;;;;;;5032488;28;20036;-78
2023/08/17 12:30:43;;;;;;;12.55;9.02;;;;;;;;;;5043360;28;20384;-69
2023/08/17 12:33:29;;;;;;;13.65;8.98;;;;;;;;;;5036187;28;20468;-78
2023/08/17 12:36:14;;;;;;;11.85;8.50;;;;;;;;;;5045575;28;20371;-69
2023/08/17 12:38:59;;;;;;;16.52;8.80;;;;;;;;;;5013396;28;20086;-69
2023/08/17 12:41:45;;;;;;;11.38;8.60;;;;;;;;;;5041204;28;20446;-70
2023/08/17 12:44:30;;;;;;;12.38;8.18;;;;;;;;;;5027008;28;20634;-74
2023/08/17 12:47:15;;;;;;;10.90;8.38;;;;;;;;;;5041494;28;20028;-69
2023/08/17 12:50:01;;;;;;;10.55;7.43;;;;;;;;;;5039585;28;20063;-66
2023/08/17 12:52:46;;;;;;;10.52;8.13;;;;;;;;;;5014425;28;20048;-73
2023/08/17 12:55:31;;;;;;;10.35;6.50;;;;;;;;;;5030720;28;20112;-74
2023/08/17 12:58:17;;;;;;;11.40;7.72;;;;;;;;;;5044176;28;20044;-70
2023/08/17 13:01:02;;;;;;;10.27;7.55;;;;;;;;;;5029782;28;20025;-73
2023/08/17 13:03:47;;;;;;;10.45;7.18;;;;;;;;;;5028951;28;20040;-69
2023/08/17 13:06:32;;;;;;;13.88;7.00;;;;;;;;;;5045057;28;20036;-70
2023/08/17 13:09:18;;;;;;;8.20;6.53;;;;;;;;;;5026240;28;20032;-69
2023/08/17 13:12:04;;;;;;;8.10;6.55;;;;;;;;;;5010589;28;20033;-68
2023/08/17 13:14:49;;;;;;;10.32;6.53;;;;;;;;;;5013342;28;20029;-66
2023/08/17 13:17:34;;;;;;;7.95;7.15;;;;;;;;;;5022253;28;20044;-74
2023/08/17 13:20:19;;;;;;;12.13;5.70;;;;;;;;;;5032188;28;20029;-69
2023/08/17 13:23:05;;;;;;;11.10;6.88;;;;;;;;;;5024973;28;20029;-77
2023/08/17 13:25:50;;;;;;;8.23;6.15;;;;;;;;;;5027859;28;20487;-82
2023/08/17 13:28:35;;;;;;;10.32;5.90;;;;;;;;;;4997654;28;20033;-77
2023/08/17 13:31:20;;;;;;;9.65;6.93;;;;;;;;;;4999636;28;20035;-77
2023/08/17 13:34:05;;;;;;;15.30;5.72;;;;;;;;;;5017728;28;20036;-84
2023/08/17 13:36:51;;;;;;;12.85;5.32;;;;;;;;;;5058502;28;20033;-70
2023/08/17 13:39:36;;;;;;;11.77;6.55;;;;;;;;;;5037392;28;20037;-76
2023/08/17 13:42:21;;;;;;;8.77;6.15;;;;;;;;;;5025547;28;20040;-68
2023/08/17 13:45:07;;;;;;;9.68;5.07;;;;;;;;;;5035529;28;20033;-69
2023/08/17 13:47:52;;;;;;;10.13;6.53;;;;;;;;;;5015625;28;20079;-71
2023/08/17 13:50:38;;;;;;;7.45;5.28;;;;;;;;;;5010601;28;20088;-68
2023/08/17 13:53:23;;;;;;;8.60;5.55;;;;;;;;;;5012269;28;20084;-70
2023/08/17 13:56:08;;;;;;;7.63;5.57;;;;;;;;;;5005728;28;20038;-69
2023/08/17 13:58:53;;;;;;;11.00;7.00;;;;;;;;;;5019664;28;20041;-71
2023/08/17 14:01:39;;;;;;;6.93;5.40;;;;;;;;;;5027606;28;20515;-70
2023/08/17 14:04:24;;;;;;;12.77;6.35;;;;;;;;;;5022201;28;20033;-65
2023/08/17 14:07:09;;;;;;;11.43;6.32;;;;;;;;;;5007500;28;20048;-72
2023/08/17 14:09:54;;;;;;;11.02;7.00;;;;;;;;;;5032933;28;20031;-71
2023/08/17 14:12:40;;;;;;;11.93;6.60;;;;;;;;;;5008259;28;20483;-72
2023/08/17 14:15:25;;;;;;;13.13;7.07;;;;;;;;;;5020170;28;20056;-71
2023/08/17 14:18:10;;;;;;;11.93;6.35;;;;;;;;;;5003001;28;20036;-71
2023/08/17 14:20:55;;;;;;;11.48;6.80;;;;;;;;;;4995225;28;20092;-71
2023/08/17 14:23:40;;;;;;;7.32;5.93;;;;;;;;;;5035852;28;20492;-72
2023/08/17 14:26:26;;;;;;;9.55;5.97;;;;;;;;;;5028628;28;20072;-72
2023/08/17 14:29:11;;;;;;;10.90;6.82;;;;;;;;;;5015995;28;20664;-73
2023/08/17 14:31:56;;;;;;;9.10;5.40;;;;;;;;;;5038499;28;20128;-70
2023/08/17 14:34:41;;;;;;;7.45;5.53;;;;;;;;;;5009920;28;20107;-77
2023/08/17 14:37:26;;;;;;;11.52;5.95;;;;;;;;;;5031799;28;20482;-76
2023/08/17 14:40:13;;;;;;;9.88;6.38;;;;;;;;;;5040120;28;20110;-75
2023/08/17 14:42:58;;;;;;;9.68;5.43;;;;;;;;;;5024280;28;20048;-76
2023/08/17 14:45:43;;;;;;;10.65;6.63;;;;;;;;;;5022296;28;20033;-75
2023/08/17 14:48:29;;;;;;;8.68;5.57;;;;;;;;;;5026532;28;20093;-76
2023/08/17 14:51:14;;;;;;;10.57;7.15;;;;;;;;;;5045749;28;20431;-75
2023/08/17 14:53:59;;;;;;;10.95;6.00;;;;;;;;;;5027478;28;20025;-76
2023/08/17 14:56:44;;;;;;;7.38;5.40;;;;;;;;;;5033221;28;20029;-71
2023/08/17 14:59:29;;;;;;;8.25;5.63;;;;;;;;;;5025252;28;20412;-71
2023/08/17 15:02:16;;;;;;;10.70;5.88;;;;;;;;;;4997794;28;20468;-73
2023/08/17 15:05:01;;;;;;;9.60;6.28;;;;;;;;;;5036647;28;20037;-73
2023/08/17 15:07:47;;;;;;;8.50;5.88;;;;;;;;;;5035741;28;20033;-73
2023/08/17 15:10:33;;;;;;;8.25;5.45;;;;;;;;;;5042872;28;20228;-78
2023/08/17 15:13:18;;;;;;;11.82;5.72;;;;;;;;;;5034144;28;20105;-73
2023/08/17 15:16:04;;;;;;;9.02;5.63;;;;;;;;;;5026478;28;20028;-72
2023/08/17 15:18:49;;;;;;;10.05;5.53;;;;;;;;;;5034106;28;20376;-73
2023/08/17 15:21:34;;;;;;;8.88;5.88;;;;;;;;;;5030787;28;20037;-73
2023/08/17 15:24:19;;;;;;;7.07;5.22;;;;;;;;;;5035897;28;20037;-73
2023/08/17 15:27:05;;;;;;;6.88;5.75;;;;;;;;;;5029039;28;20028;-73
2023/08/17 15:29:50;;;;;;;9.32;6.15;;;;;;;;;;5026210;28;20570;-73
2023/08/17 15:32:35;;;;;;;9.18;5.60;;;;;;;;;;5032701;28;20059;-71
2023/08/17 15:35:20;;;;;;;10.48;5.40;;;;;;;;;;5035900;28;20021;-71
2023/08/17 15:38:06;;;;;;;8.25;5.80;;;;;;;;;;5033434;28;20472;-71
2023/08/17 15:40:51;;;;;;;9.43;6.15;;;;;;;;;;5029603;28;20036;-71
2023/08/17 15:43:36;;;;;;;9.02;5.57;;;;;;;;;;5016008;28;20125;-70
2023/08/17 15:46:22;;;;;;;5.20;4.60;;;;;;;;;;4989218;28;20026;-70
2023/08/17 15:49:07;;;;;;;10.02;5.88;;;;;;;;;;5014444;28;21175;-77
2023/08/17 15:51:52;;;;;;;11.38;6.82;;;;;;;;;;5014311;28;20033;-72
2023/08/17 15:54:37;;;;;;;11.35;5.30;;;;;;;;;;5021812;28;20045;-73
2023/08/17 15:57:23;;;;;;;9.30;5.90;;;;;;;;;;5027610;28;20025;-73
2023/08/17 16:00:08;;;;;;;7.68;6.22;;;;;;;;;;5029007;28;20108;-73
2023/08/17 16:02:54;;;;;;;7.75;5.90;;;;;;;;;;5032831;28;20036;-72
2023/08/17 16:05:39;;;;;;;8.43;5.93;;;;;;;;;;5037791;28;20036;-70
2023/08/17 16:08:24;;;;;;;6.82;4.80;;;;;;;;;;5026913;28;20064;-71
2023/08/17 16:11:10;;;;;;;9.07;5.93;;;;;;;;;;5015110;28;20029;-78
2023/08/17 16:13:56;;;;;;;7.05;4.68;;;;;;;;;;5033861;28;20115;-78
2023/08/17 16:16:42;;;;;;;7.60;5.40;;;;;;;;;;5053838;28;20479;-77
2023/08/17 16:19:28;;;;;;;9.68;6.32;;;;;;;;;;5031795;28;20121;-78
2023/08/17 16:22:13;;;;;;;7.95;6.15;;;;;;;;;;5025110;28;20039;-77
2023/08/17 16:24:58;;;;;;;7.35;5.35;;;;;;;;;;5028469;28;20475;-72